createdAt,value
2019-02-22T00:01:50.683Z,120.57
2019-02-22T00:04:19.188Z,123.22
2019-02-22T00:06:47.726Z,124.40
2019-02-22T00:09:16.233Z,123.25
2019-02-22T00:11:44.796Z,122.65
2019-02-22T00:14:13.308Z,124.53
2019-02-22T00:16:41.878Z,126.02
2019-02-22T00:19:10.371Z,134.05
2019-02-22T00:21:38.867Z,115.17
2019-02-22T00:24:07.402Z,121.40
2019-02-22T00:26:35.910Z,126.97
2019-02-22T00:29:04.454Z,127.20
2019-02-22T00:31:32.983Z,121.50
2019-02-22T00:34:01.580Z,119.95
2019-02-22T00:36:30.111Z,124.70
2019-02-22T00:38:58.616Z,132.15
2019-02-22T00:41:27.134Z,127.58
2019-02-22T00:43:55.631Z,135.93
2019-02-22T00:46:24.143Z,127.70
2019-02-22T00:48:52.693Z,121.55
2019-02-22T00:51:21.246Z,124.20
2019-02-22T00:53:49.761Z,125.87
2019-02-22T00:56:18.272Z,123.02
2019-02-22T00:58:46.877Z,118.62
2019-02-22T01:01:15.391Z,117.45
2019-02-22T01:03:43.912Z,116.70
2019-02-22T01:06:12.455Z,115.45
2019-02-22T01:08:41.008Z,115.85
2019-02-22T01:11:09.528Z,125.15
2019-02-22T01:13:38.041Z,119.30
2019-02-22T01:16:06.569Z,115.12
2019-02-22T01:18:35.243Z,124.60
2019-02-22T01:21:03.774Z,114.88
2019-02-22T01:23:32.287Z,112.62
2019-02-22T01:26:00.893Z,123.35
2019-02-22T01:28:29.409Z,129.18
2019-02-22T01:30:57.921Z,120.92
2019-02-22T01:33:26.530Z,118.37
2019-02-22T01:35:55.041Z,117.97
2019-02-22T01:38:23.583Z,112.97
2019-02-22T01:40:52.103Z,130.07
2019-02-22T01:43:20.662Z,117.60
2019-02-22T01:45:49.175Z,126.60
2019-02-22T01:48:17.689Z,129.40
2019-02-22T01:50:46.240Z,115.40
2019-02-22T01:53:14.746Z,118.25
2019-02-22T01:55:43.274Z,120.00
2019-02-22T01:58:11.808Z,121.53
2019-02-22T02:00:40.438Z,118.28
2019-02-22T02:03:08.946Z,114.75
2019-02-22T02:05:37.443Z,109.95
2019-02-22T02:08:05.998Z,120.02
2019-02-22T02:10:34.529Z,115.85
2019-02-22T02:13:03.134Z,107.80
2019-02-22T02:15:31.661Z,111.92
2019-02-22T02:18:00.225Z,115.47
2019-02-22T02:20:28.860Z,123.58
2019-02-22T02:22:57.360Z,112.72
2019-02-22T02:25:25.873Z,119.05
2019-02-22T02:27:54.388Z,114.67
2019-02-22T02:30:22.946Z,120.00
2019-02-22T02:32:51.445Z,113.35
2019-02-22T02:35:19.991Z,116.57
2019-02-22T02:37:48.501Z,118.37
2019-02-22T02:40:17.026Z,128.50
2019-02-22T02:42:45.552Z,117.17
2019-02-22T02:45:14.061Z,118.70
2019-02-22T02:47:42.606Z,116.47
2019-02-22T02:50:14.501Z,111.52
2019-02-22T02:52:43.075Z,110.78
2019-02-22T02:55:26.281Z,107.45
2019-02-22T02:57:54.918Z,116.53
2019-02-22T03:00:23.494Z,120.45
2019-02-22T03:02:52.033Z,104.53
2019-02-22T03:05:22.201Z,117.42
2019-02-22T03:07:50.702Z,122.95
2019-02-22T03:10:19.227Z,116.37
2019-02-22T03:12:47.735Z,119.13
2019-02-22T03:15:17.928Z,109.40
2019-02-22T03:17:46.437Z,118.02
2019-02-22T03:20:14.938Z,118.28
2019-02-22T03:22:43.532Z,123.20
2019-02-22T03:25:12.044Z,124.20
2019-02-22T03:27:40.582Z,113.72
2019-02-22T03:30:10.752Z,107.75
2019-02-22T03:32:39.296Z,118.13
2019-02-22T03:35:07.975Z,116.22
2019-02-22T03:37:36.492Z,122.33
2019-02-22T03:40:06.942Z,112.00
2019-02-22T03:42:35.512Z,116.30
2019-02-22T03:45:05.794Z,113.92
2019-02-22T03:47:35.317Z,113.80
2019-02-22T03:50:05.794Z,127.70
2019-02-22T03:52:41.861Z,120.90
2019-02-22T03:55:10.582Z,113.77
2019-02-22T03:57:39.213Z,120.75
2019-02-22T04:00:10.123Z,119.87
2019-02-22T04:02:38.676Z,117.43
2019-02-22T04:05:08.121Z,114.67
2019-02-22T04:07:36.709Z,115.92
2019-02-22T04:10:06.879Z,116.17
2019-02-22T04:12:35.460Z,106.30
2019-02-22T04:15:08.974Z,116.47
2019-02-22T04:17:37.471Z,117.80
2019-02-22T04:20:07.787Z,121.55
2019-02-22T04:22:36.282Z,114.45
2019-02-22T04:25:05.980Z,110.60
2019-02-22T04:27:34.541Z,105.67
2019-02-22T04:30:03.102Z,110.75
2019-02-22T04:32:31.621Z,109.45
2019-02-22T04:35:00.309Z,117.33
2019-02-22T04:37:28.969Z,116.55
2019-02-22T04:39:57.497Z,110.97
2019-02-22T04:42:26.048Z,120.40
2019-02-22T04:44:54.663Z,113.20
2019-02-22T04:47:23.167Z,119.13
2019-02-22T04:49:51.698Z,112.52
2019-02-22T04:52:20.209Z,118.13
2019-02-22T04:54:48.753Z,115.88
2019-02-22T04:57:17.279Z,108.12
2019-02-22T04:59:45.816Z,104.53
2019-02-22T05:02:14.338Z,107.58
2019-02-22T05:04:42.847Z,124.47
2019-02-22T05:07:11.387Z,109.80
2019-02-22T05:09:39.881Z,112.05
2019-02-22T05:12:11.038Z,119.93
2019-02-22T05:14:38.575Z,116.37
2019-02-22T05:17:07.170Z,114.75
2019-02-22T05:19:35.799Z,108.17
2019-02-22T05:22:04.364Z,108.17
2019-02-22T05:24:32.893Z,103.20
2019-02-22T05:27:01.493Z,115.75
2019-02-22T05:29:30.102Z,113.47
2019-02-22T05:31:58.599Z,106.95
2019-02-22T05:34:27.274Z,115.00
2019-02-22T05:36:55.762Z,118.40
2019-02-22T05:39:24.263Z,98.70
2019-02-22T05:41:52.793Z,116.15
2019-02-22T05:44:21.308Z,103.40
2019-02-22T05:46:59.854Z,110.00
2019-02-22T05:49:22.174Z,108.37
2019-02-22T05:51:50.270Z,116.40
2019-02-22T05:54:18.779Z,112.97
2019-02-22T05:56:47.306Z,108.78
2019-02-22T05:59:15.841Z,104.32
2019-02-22T06:01:44.433Z,107.87
2019-02-22T06:04:12.957Z,105.40
2019-02-22T06:06:41.469Z,105.85
2019-02-22T06:09:10.077Z,108.32
2019-02-22T06:11:38.622Z,115.92
2019-02-22T06:14:07.156Z,104.45
2019-02-22T06:16:37.309Z,105.05
2019-02-22T06:19:05.951Z,118.60
2019-02-22T06:21:34.458Z,107.43
2019-02-22T06:24:03.111Z,118.47
2019-02-22T06:26:31.817Z,116.95
2019-02-22T06:29:00.399Z,117.57
2019-02-22T06:31:28.917Z,113.28
2019-02-22T06:33:57.447Z,107.05
2019-02-22T06:36:25.969Z,113.85
2019-02-22T06:38:54.531Z,112.45
2019-02-22T06:41:23.082Z,114.20
2019-02-22T06:43:51.575Z,118.17
2019-02-22T06:46:20.243Z,109.63
2019-02-22T06:48:48.742Z,113.72
2019-02-22T06:51:17.319Z,112.32
2019-02-22T06:53:45.904Z,116.08
2019-02-22T06:56:14.456Z,115.90
2019-02-22T06:58:42.967Z,116.30
2019-02-22T07:01:11.459Z,113.45
2019-02-22T07:03:40.057Z,114.92
2019-02-22T07:06:08.561Z,116.75
2019-02-22T07:08:37.057Z,112.17
2019-02-22T07:11:07.220Z,120.28
2019-02-22T07:13:35.724Z,118.40
2019-02-22T07:16:04.321Z,113.17
2019-02-22T07:18:32.817Z,111.03
2019-02-22T07:21:01.417Z,108.60
2019-02-22T07:23:29.915Z,115.62
2019-02-22T07:25:58.446Z,108.97
2019-02-22T07:28:26.989Z,116.30
2019-02-22T07:30:55.513Z,122.00
2019-02-22T07:33:24.070Z,111.17
2019-02-22T07:35:52.579Z,110.72
2019-02-22T07:38:21.413Z,108.22
2019-02-22T07:40:49.939Z,112.72
2019-02-22T07:43:18.435Z,111.20
2019-02-22T07:45:46.950Z,113.52
2019-02-22T07:48:15.456Z,113.25
2019-02-22T07:50:56.608Z,115.72
2019-02-22T07:53:15.072Z,127.47
2019-02-22T07:55:43.614Z,110.65
2019-02-22T07:58:12.210Z,123.13
2019-02-22T08:00:40.784Z,123.00
2019-02-22T08:03:24.523Z,108.65
2019-02-22T08:05:53.085Z,114.85
2019-02-22T08:08:21.704Z,125.50
2019-02-22T08:10:50.291Z,119.00
2019-02-22T08:13:19.941Z,126.60
2019-02-22T08:15:48.736Z,121.05
2019-02-22T08:18:17.243Z,115.30
2019-02-22T08:20:45.815Z,123.90
2019-02-22T08:23:14.313Z,122.55
2019-02-22T08:25:42.843Z,112.50
2019-02-22T08:28:11.348Z,120.55
2019-02-22T08:30:39.952Z,118.15
2019-02-22T08:33:08.428Z,119.53
2019-02-22T08:35:36.942Z,125.70
2019-02-22T08:38:05.475Z,121.02
2019-02-22T08:40:33.982Z,129.68
2019-02-22T08:43:02.812Z,116.47
2019-02-22T08:45:31.325Z,117.67
2019-02-22T08:47:59.825Z,117.08
2019-02-22T08:50:28.390Z,115.67
2019-02-22T08:52:56.880Z,121.37
2019-02-22T08:55:25.517Z,121.20
2019-02-22T08:57:54.028Z,117.40
2019-02-22T09:00:22.550Z,129.07
2019-02-22T09:02:51.284Z,119.77
2019-02-22T09:05:19.788Z,124.10
2019-02-22T09:07:48.401Z,120.30
2019-02-22T09:10:16.962Z,121.80
2019-02-22T09:12:45.527Z,127.27
2019-02-22T09:15:14.108Z,122.02
2019-02-22T09:17:42.666Z,128.32
2019-02-22T09:20:12.403Z,133.87
2019-02-22T09:22:40.972Z,133.47
2019-02-22T09:25:09.495Z,126.35
2019-02-22T09:27:38.025Z,121.05
2019-02-22T09:30:09.800Z,113.05
2019-02-22T09:32:38.319Z,123.10
2019-02-22T09:35:09.589Z,112.20
2019-02-22T09:37:38.194Z,122.72
2019-02-22T09:40:14.808Z,118.33
2019-02-22T09:42:43.090Z,106.72
2019-02-22T09:45:12.626Z,95.75
2019-02-22T09:47:41.139Z,91.85
2019-02-22T09:50:12.318Z,83.12
2019-02-22T09:52:40.849Z,87.80
2019-02-22T09:55:11.415Z,87.97
2019-02-22T09:57:39.986Z,83.62
2019-02-22T10:00:11.210Z,80.57
2019-02-22T10:02:39.711Z,82.55
2019-02-22T10:05:09.886Z,65.80
2019-02-22T10:07:38.470Z,77.65
2019-02-22T10:10:10.953Z,69.90
2019-02-22T10:12:39.467Z,65.40
2019-02-22T10:15:09.438Z,61.88
2019-02-22T10:17:38.033Z,58.87
2019-02-22T10:20:09.045Z,48.33
2019-02-22T10:22:37.640Z,52.40
2019-02-22T10:25:06.992Z,44.95
2019-02-22T10:27:35.633Z,46.30
2019-02-22T10:30:06.188Z,45.48
2019-02-22T10:32:34.718Z,40.03
2019-02-22T10:35:03.235Z,33.75
2019-02-22T10:37:31.756Z,39.70
2019-02-22T10:40:00.378Z,37.70
2019-02-22T10:42:28.908Z,41.90
2019-02-22T10:44:57.431Z,50.52
2019-02-22T10:47:47.140Z,51.60
2019-02-22T10:50:15.897Z,53.58
2019-02-22T10:52:44.399Z,52.73
2019-02-22T10:55:13.333Z,59.45
2019-02-22T10:57:41.898Z,58.73
2019-02-22T11:00:15.133Z,49.33
2019-02-22T11:02:43.697Z,54.58
2019-02-22T11:05:12.336Z,33.78
2019-02-22T11:07:40.915Z,28.07
2019-02-22T11:10:15.418Z,21.62
2019-02-22T11:12:43.955Z,17.05
2019-02-22T11:15:13.419Z,17.55
2019-02-22T11:17:41.997Z,19.27
2019-02-22T11:20:11.622Z,21.02
2019-02-22T11:22:40.114Z,13.68
2019-02-22T11:25:14.454Z,17.62
2019-02-22T11:27:42.963Z,18.77
2019-02-22T11:30:13.213Z,18.85
2019-02-22T11:32:41.843Z,16.55
2019-02-22T11:35:10.812Z,17.50
2019-02-22T11:37:39.408Z,16.35
2019-02-22T11:40:10.083Z,24.20
2019-02-22T11:42:38.656Z,22.93
2019-02-22T11:45:08.506Z,23.50
2019-02-22T11:47:37.032Z,20.72
2019-02-22T11:50:10.471Z,19.75
2019-02-22T11:52:38.982Z,19.62
2019-02-22T11:55:08.866Z,19.37
2019-02-22T11:57:37.447Z,16.10
2019-02-22T12:00:15.360Z,17.90
2019-02-22T12:02:45.301Z,47.17
2019-02-22T12:05:14.176Z,73.05
2019-02-22T12:07:42.818Z,105.47
2019-02-22T12:10:11.401Z,107.12
2019-02-22T12:12:40.078Z,106.72
2019-02-22T12:15:11.990Z,115.92
2019-02-22T12:17:40.554Z,115.05
2019-02-22T12:20:10.115Z,113.25
2019-02-22T12:22:38.619Z,121.45
2019-02-22T12:25:13.076Z,126.12
2019-02-22T12:27:42.529Z,99.60
2019-02-22T12:30:15.616Z,109.12
2019-02-22T12:32:44.416Z,111.22
2019-02-22T12:35:12.961Z,115.80
2019-02-22T12:37:41.484Z,108.87
2019-02-22T12:40:12.542Z,109.65
2019-02-22T12:42:41.075Z,108.83
2019-02-22T12:45:13.722Z,117.57
2019-02-22T12:47:42.292Z,130.03
2019-02-22T12:50:11.848Z,120.13
2019-02-22T12:52:40.813Z,120.15
2019-02-22T12:55:10.031Z,124.53
2019-02-22T12:57:38.562Z,129.60
2019-02-22T13:00:13.250Z,133.00
2019-02-22T13:02:42.127Z,141.32
2019-02-22T13:05:13.478Z,136.92
2019-02-22T13:07:41.996Z,141.55
2019-02-22T13:10:10.592Z,138.82
2019-02-22T13:12:39.133Z,141.80
2019-02-22T13:15:13.979Z,149.70
2019-02-22T13:17:40.523Z,165.73
2019-02-22T13:20:09.656Z,155.57
2019-02-22T13:22:38.440Z,156.18
2019-02-22T13:25:11.120Z,157.12
2019-02-22T13:27:39.692Z,151.95
2019-02-22T13:30:11.334Z,151.95
2019-02-22T13:32:39.930Z,157.55
2019-02-22T13:35:10.866Z,154.10
2019-02-22T13:37:38.764Z,153.55
2019-02-22T13:40:10.665Z,145.90
2019-02-22T13:42:39.221Z,154.85
2019-02-22T13:45:10.240Z,147.95
2019-02-22T13:47:38.851Z,156.72
2019-02-22T13:50:13.530Z,156.75
2019-02-22T13:52:42.968Z,163.62
2019-02-22T13:55:11.520Z,155.22
2019-02-22T13:57:40.034Z,155.50
2019-02-22T14:00:12.239Z,158.07
2019-02-22T14:02:41.000Z,157.88
2019-02-22T14:05:10.614Z,160.45
2019-02-22T14:07:39.202Z,159.30
2019-02-22T14:10:08.148Z,152.87
2019-02-22T14:12:36.667Z,156.40
2019-02-22T14:15:07.973Z,154.82
2019-02-22T14:17:36.607Z,144.22
2019-02-22T14:20:07.996Z,154.18
2019-02-22T14:22:36.526Z,146.87
2019-02-22T14:25:05.726Z,151.18
2019-02-22T14:27:34.335Z,142.32
2019-02-22T14:30:02.867Z,150.35
2019-02-22T14:32:31.865Z,141.22
2019-02-22T14:35:00.381Z,155.25
2019-02-22T14:37:29.371Z,151.20
2019-02-22T14:40:03.350Z,133.75
2019-02-22T14:42:28.321Z,146.30
2019-02-22T14:44:56.939Z,149.85
2019-02-22T14:47:25.729Z,136.32
2019-02-22T14:49:54.407Z,142.62
2019-02-22T14:52:22.962Z,136.52
2019-02-22T14:54:51.738Z,134.27
2019-02-22T14:57:20.340Z,129.00
2019-02-22T14:59:48.923Z,125.67
2019-02-22T15:02:17.861Z,132.20
2019-02-22T15:04:46.399Z,126.07
2019-02-22T15:07:14.962Z,121.35
2019-02-22T15:09:43.491Z,122.02
2019-02-22T15:12:12.141Z,232.35
2019-02-22T15:14:40.750Z,115.32
2019-02-22T15:17:17.004Z,126.70
2019-02-22T15:19:45.540Z,120.60
2019-02-22T15:22:14.066Z,119.33
2019-02-22T15:24:42.619Z,112.22
2019-02-22T15:27:11.143Z,117.15
2019-02-22T15:29:39.721Z,119.57
2019-02-22T15:32:08.209Z,122.62
2019-02-22T15:34:36.808Z,118.75
2019-02-22T15:37:05.420Z,114.55
2019-02-22T15:39:34.024Z,123.22
2019-02-22T15:42:02.607Z,123.35
2019-02-22T15:44:31.240Z,123.53
2019-02-22T15:47:11.068Z,117.82
2019-02-22T15:49:30.069Z,116.77
2019-02-22T15:51:58.922Z,120.35
2019-02-22T15:54:27.384Z,124.55
2019-02-22T15:56:56.209Z,125.07
2019-02-22T15:59:24.835Z,118.42
2019-02-22T16:01:55.883Z,115.42
2019-02-22T16:04:38.146Z,122.67
2019-02-22T16:07:06.673Z,121.30
2019-02-22T16:09:35.213Z,119.10
2019-02-22T16:12:04.334Z,117.22
2019-02-22T16:14:32.852Z,124.92
2019-02-22T16:17:01.404Z,118.93
2019-02-22T16:19:29.903Z,120.15
2019-02-22T16:21:58.450Z,118.77
2019-02-22T16:24:26.981Z,120.87
2019-02-22T16:27:04.432Z,122.85
2019-02-22T16:29:32.927Z,120.02
2019-02-22T16:32:01.763Z,116.95
2019-02-22T16:34:30.286Z,121.92
2019-02-22T16:36:58.817Z,135.72
2019-02-22T16:39:27.356Z,130.45
2019-02-22T16:41:55.865Z,117.80
2019-02-22T16:44:24.475Z,117.22
2019-02-22T16:46:53.077Z,115.50
2019-02-22T16:49:21.582Z,108.80
2019-02-22T16:51:50.192Z,121.22
2019-02-22T16:54:18.689Z,126.35
2019-02-22T16:56:47.207Z,134.70
2019-02-22T16:59:15.718Z,129.35
2019-02-22T17:01:44.282Z,144.35
2019-02-22T17:04:12.820Z,137.25
2019-02-22T17:06:41.420Z,124.65
2019-02-22T17:09:09.962Z,125.30
2019-02-22T17:11:38.765Z,120.00
2019-02-22T17:14:07.291Z,130.78
2019-02-22T17:16:45.499Z,124.72
2019-02-22T17:19:06.184Z,126.78
2019-02-22T17:21:34.723Z,123.72
2019-02-22T17:24:03.309Z,125.65
2019-02-22T17:26:31.967Z,136.22
2019-02-22T17:29:00.566Z,125.87
2019-02-22T17:31:29.922Z,120.97
2019-02-22T17:33:58.548Z,133.75
2019-02-22T17:36:27.347Z,139.47
2019-02-22T17:38:56.118Z,129.87
2019-02-22T17:41:24.655Z,128.02
2019-02-22T17:43:53.174Z,131.37
2019-02-22T17:46:21.768Z,129.12
2019-02-22T17:48:50.381Z,133.03
2019-02-22T17:51:18.986Z,124.60
2019-02-22T17:53:47.510Z,135.40
2019-02-22T17:56:16.285Z,121.28
2019-02-22T17:58:44.888Z,131.22
2019-02-22T18:01:13.400Z,127.25
2019-02-22T18:03:41.918Z,138.80
2019-02-22T18:06:10.468Z,140.45
2019-02-22T18:08:38.973Z,131.27
2019-02-22T18:11:07.540Z,137.25
2019-02-22T18:13:39.485Z,132.85
2019-02-22T18:16:07.990Z,135.68
2019-02-22T18:18:36.847Z,123.35
2019-02-22T18:21:05.491Z,129.72
2019-02-22T18:23:34.045Z,140.70
2019-02-22T18:26:02.615Z,137.92
2019-02-22T18:28:31.177Z,136.32
2019-02-22T18:30:59.716Z,137.37
2019-02-22T18:33:28.357Z,142.45
2019-02-22T18:35:56.883Z,141.97
2019-02-22T18:38:25.414Z,129.20
2019-02-22T18:40:53.955Z,132.93
2019-02-22T18:43:22.576Z,135.22
2019-02-22T18:45:51.310Z,136.40
2019-02-22T18:48:19.875Z,140.77
2019-02-22T18:50:48.375Z,146.22
2019-02-22T18:53:16.921Z,148.80
2019-02-22T18:55:49.791Z,141.68
2019-02-22T18:58:15.711Z,152.05
2019-02-22T19:00:44.225Z,197.70
2019-02-22T19:03:12.807Z,131.10
2019-02-22T19:05:41.690Z,159.00
2019-02-22T19:08:10.230Z,172.95
2019-02-22T19:10:38.732Z,163.20
2019-02-22T19:13:07.310Z,144.10
2019-02-22T19:15:35.956Z,151.45
2019-02-22T19:18:04.539Z,142.47
2019-02-22T19:20:33.093Z,152.10
2019-02-22T19:23:01.677Z,161.43
2019-02-22T19:25:30.214Z,165.50
2019-02-22T19:27:58.734Z,167.57
2019-02-22T19:30:27.362Z,151.87
2019-02-22T19:32:55.863Z,156.65
2019-02-22T19:35:24.459Z,149.68
2019-02-22T19:37:53.309Z,150.42
2019-02-22T19:40:24.317Z,164.93
2019-02-22T19:42:53.096Z,148.65
2019-02-22T19:45:21.970Z,153.75
2019-02-22T19:47:50.489Z,153.47
2019-02-22T19:50:19.007Z,150.93
2019-02-22T19:52:47.540Z,148.43
2019-02-22T19:55:17.803Z,150.75
2019-02-22T19:57:46.358Z,134.07
2019-02-22T20:00:19.598Z,142.20
2019-02-22T20:02:48.522Z,136.37
2019-02-22T20:05:17.175Z,133.78
2019-02-22T20:07:45.709Z,126.70
2019-02-22T20:10:21.413Z,126.85
2019-02-22T20:12:49.933Z,129.32
2019-02-22T20:15:18.706Z,135.25
2019-02-22T20:17:53.824Z,134.87
2019-02-22T20:20:18.390Z,140.25
2019-02-22T20:22:46.911Z,121.17
2019-02-22T20:25:15.651Z,124.30
2019-02-22T20:27:44.295Z,102.17
2019-02-22T20:30:14.775Z,100.27
2019-02-22T20:32:43.391Z,79.97
2019-02-22T20:35:15.175Z,78.55
2019-02-22T20:37:51.867Z,71.97
2019-02-22T20:40:13.885Z,87.20
2019-02-22T20:42:42.461Z,92.70
2019-02-22T20:45:12.355Z,92.57
2019-02-22T20:47:41.544Z,95.55
2019-02-22T20:50:17.026Z,89.37
2019-02-22T20:52:45.605Z,101.72
2019-02-22T20:55:14.165Z,89.42
2019-02-22T20:57:42.663Z,86.60
2019-02-22T21:00:22.103Z,78.00
2019-02-22T21:02:50.762Z,70.65
2019-02-22T21:05:20.588Z,68.15
2019-02-22T21:07:49.213Z,68.10
2019-02-22T21:10:21.816Z,68.90
2019-02-22T21:12:50.336Z,58.05
2019-02-22T21:15:18.845Z,67.97
2019-02-22T21:17:47.433Z,62.38
2019-02-22T21:20:22.467Z,57.15
2019-02-22T21:22:51.038Z,62.88
2019-02-22T21:25:19.545Z,61.18
2019-02-22T21:27:48.213Z,58.98
2019-02-22T21:30:18.167Z,61.35
2019-02-22T21:32:46.762Z,58.58
2019-02-22T21:35:15.451Z,60.55
2019-02-22T21:37:44.592Z,51.73
2019-02-22T21:40:13.831Z,53.05
2019-02-22T21:42:42.398Z,64.50
2019-02-22T21:45:15.016Z,63.15
2019-02-22T21:47:54.361Z,62.38
2019-02-22T21:50:14.763Z,60.03
2019-02-22T21:52:43.320Z,68.57
2019-02-22T21:55:13.065Z,54.33
2019-02-22T21:57:41.569Z,58.65
2019-02-22T22:00:27.978Z,57.98
2019-02-22T22:02:56.485Z,52.70
2019-02-22T22:05:25.043Z,47.90
2019-02-22T22:07:53.621Z,50.67
2019-02-22T22:10:22.187Z,55.90
2019-02-22T22:12:50.720Z,48.90
2019-02-22T22:15:19.219Z,48.10
2019-02-22T22:17:47.809Z,43.00
2019-02-22T22:20:16.347Z,47.60
2019-02-22T22:22:44.923Z,48.30
2019-02-22T22:25:16.672Z,56.60
2019-02-22T22:27:45.184Z,46.28
2019-02-22T22:30:14.816Z,49.60
2019-02-22T22:32:43.419Z,51.50
2019-02-22T22:35:13.364Z,46.83
2019-02-22T22:37:41.854Z,46.08
2019-02-22T22:40:11.082Z,41.13
2019-02-22T22:42:39.629Z,49.08
2019-02-22T22:45:15.605Z,51.33
2019-02-22T22:47:44.149Z,42.80
2019-02-22T22:50:15.224Z,40.75
2019-02-22T22:52:43.829Z,41.20
2019-02-22T22:55:12.336Z,41.88
2019-02-22T22:57:40.883Z,44.27
2019-02-22T23:00:29.049Z,38.08
2019-02-22T23:02:57.576Z,40.65
2019-02-22T23:05:26.144Z,41.95
2019-02-22T23:07:54.695Z,36.20
2019-02-22T23:10:23.209Z,47.20
2019-02-22T23:12:51.807Z,47.03
2019-02-22T23:15:20.327Z,46.98
2019-02-22T23:17:48.905Z,44.05
2019-02-22T23:20:17.642Z,48.35
2019-02-22T23:22:46.159Z,51.23
2019-02-22T23:25:14.694Z,50.95
2019-02-22T23:27:43.260Z,61.68
2019-02-22T23:30:11.756Z,61.20
2019-02-22T23:32:40.286Z,63.85
2019-02-22T23:35:08.920Z,65.40
2019-02-22T23:37:37.655Z,72.87
2019-02-22T23:40:06.374Z,66.57
2019-02-22T23:42:34.981Z,72.05
2019-02-22T23:45:03.723Z,68.00
2019-02-22T23:47:32.425Z,81.35
2019-02-22T23:50:01.190Z,68.72
2019-02-22T23:52:29.675Z,76.17
2019-02-22T23:54:58.382Z,76.25
2019-02-22T23:57:26.951Z,73.85
2019-02-22T23:59:55.676Z,73.62
